createdAt,value
2019-05-30T00:00:12.529Z,26.60
2019-05-30T00:02:35.986Z,26.70
2019-05-30T00:05:18.070Z,26.70
2019-05-30T00:07:51.586Z,26.70
2019-05-30T00:10:24.116Z,26.70
2019-05-30T00:12:58.570Z,26.70
2019-05-30T00:15:31.042Z,26.80
2019-05-30T00:18:05.092Z,26.80
2019-05-30T00:20:39.539Z,26.80
2019-05-30T00:23:13.347Z,26.90
2019-05-30T00:25:45.636Z,26.90
2019-05-30T00:28:18.937Z,26.90
2019-05-30T00:30:50.167Z,27.00
2019-05-30T00:33:23.153Z,27.10
2019-05-30T00:35:55.507Z,27.00
2019-05-30T00:38:28.401Z,27.10
2019-05-30T00:41:01.992Z,27.10
2019-05-30T00:43:35.335Z,27.10
2019-05-30T00:46:06.688Z,27.10
2019-05-30T00:48:39.379Z,27.20
2019-05-30T00:51:12.860Z,27.20
2019-05-30T00:53:45.499Z,27.30
2019-05-30T00:56:18.036Z,27.40
2019-05-30T00:58:51.755Z,27.40
2019-05-30T01:01:25.063Z,27.40
2019-05-30T01:04:00.745Z,27.50
2019-05-30T01:06:33.381Z,27.50
2019-05-30T01:09:07.577Z,27.60
2019-05-30T01:11:40.793Z,27.60
2019-05-30T01:14:35.053Z,27.60
2019-05-30T01:17:07.730Z,27.60
2019-05-30T01:19:40.578Z,27.70
2019-05-30T01:22:13.329Z,27.80
2019-05-30T01:25:04.434Z,27.80
2019-05-30T01:27:32.596Z,27.90
2019-05-30T01:30:05.640Z,28.00
2019-05-30T01:32:38.135Z,28.10
2019-05-30T01:35:11.299Z,28.10
2019-05-30T01:37:43.853Z,28.10
2019-05-30T01:40:17.411Z,28.10
2019-05-30T01:42:49.911Z,28.10
2019-05-30T01:45:22.557Z,28.10
2019-05-30T01:47:56.556Z,28.20
2019-05-30T01:50:30.225Z,28.20
2019-05-30T01:53:08.715Z,28.40
2019-05-30T01:55:41.576Z,28.50
2019-05-30T01:58:14.916Z,28.50
2019-05-30T02:00:48.174Z,28.60
2019-05-30T02:03:19.404Z,28.60
2019-05-30T02:05:52.123Z,28.60
2019-05-30T02:08:24.698Z,28.60
2019-05-30T02:10:59.186Z,28.40
2019-05-30T02:13:31.903Z,28.40
2019-05-30T02:16:05.707Z,28.20
2019-05-30T02:18:38.324Z,28.30
2019-05-30T02:21:11.329Z,28.20
2019-05-30T02:23:42.661Z,28.20
2019-05-30T02:26:15.630Z,28.20
2019-05-30T02:28:48.535Z,28.40
2019-05-30T02:31:37.823Z,28.60
2019-05-30T02:33:56.984Z,28.90
2019-05-30T02:36:30.489Z,29.20
2019-05-30T02:39:03.087Z,29.40
2019-05-30T02:41:35.075Z,29.60
2019-05-30T02:44:10.264Z,29.80
2019-05-30T02:46:44.011Z,30.00
2019-05-30T02:49:16.424Z,30.10
2019-05-30T02:51:50.063Z,30.20
2019-05-30T02:54:23.165Z,30.30
2019-05-30T02:56:54.995Z,30.30
2019-05-30T02:59:27.447Z,30.40
2019-05-30T03:02:02.880Z,30.30
2019-05-30T03:04:33.129Z,30.20
2019-05-30T03:07:07.069Z,30.20
2019-05-30T03:09:39.224Z,30.20
2019-05-30T03:12:13.429Z,30.10
2019-05-30T03:14:46.645Z,30.00
2019-05-30T03:17:20.220Z,29.90
2019-05-30T03:19:56.512Z,29.80
2019-05-30T03:22:29.532Z,29.60
2019-05-30T03:25:05.034Z,29.50
2019-05-30T03:27:37.284Z,29.40
2019-05-30T03:30:22.080Z,29.30
2019-05-30T03:33:07.573Z,29.20
2019-05-30T03:35:28.743Z,29.10
2019-05-30T03:37:56.465Z,29.10
2019-05-30T03:40:30.330Z,29.20
2019-05-30T03:43:06.035Z,29.20
2019-05-30T03:45:39.085Z,29.30
2019-05-30T03:48:16.003Z,29.50
2019-05-30T03:50:50.534Z,29.60
2019-05-30T03:53:25.699Z,29.80
2019-05-30T03:56:01.158Z,29.90
2019-05-30T03:58:42.284Z,30.00
2019-05-30T04:01:18.508Z,29.90
2019-05-30T04:03:54.425Z,29.90
2019-05-30T04:06:34.645Z,29.90
2019-05-30T04:09:09.897Z,29.80
2019-05-30T04:11:45.370Z,29.80
2019-05-30T04:14:23.987Z,29.70
2019-05-30T04:16:56.576Z,29.60
2019-05-30T04:19:30.444Z,29.50
2019-05-30T04:22:03.659Z,29.50
2019-05-30T04:24:36.534Z,29.40
2019-05-30T04:27:09.886Z,29.50
2019-05-30T04:29:43.174Z,29.50
2019-05-30T04:32:16.507Z,29.50
2019-05-30T04:34:55.983Z,29.60
2019-05-30T04:37:28.558Z,29.70
2019-05-30T04:40:00.756Z,29.80
2019-05-30T04:42:33.450Z,29.90
2019-05-30T04:45:09.504Z,30.10
2019-05-30T04:47:41.754Z,30.10
2019-05-30T04:50:16.385Z,30.30
2019-05-30T04:52:49.128Z,30.40
2019-05-30T04:55:23.123Z,30.70
2019-05-30T04:57:55.626Z,30.90
2019-05-30T05:00:28.590Z,31.10
2019-05-30T05:03:01.451Z,31.20
2019-05-30T05:05:35.732Z,31.20
2019-05-30T05:08:08.720Z,31.30
2019-05-30T05:10:41.728Z,31.20
2019-05-30T05:13:16.167Z,31.20
2019-05-30T05:15:49.095Z,31.10
2019-05-30T05:18:23.426Z,31.10
2019-05-30T05:20:56.412Z,31.00
2019-05-30T05:23:29.610Z,30.90
2019-05-30T05:26:03.282Z,30.90
2019-05-30T05:28:35.927Z,30.90
2019-05-30T05:31:07.783Z,30.90
2019-05-30T05:33:55.465Z,30.80
2019-05-30T05:36:15.389Z,30.90
2019-05-30T05:38:47.995Z,30.90
2019-05-30T05:41:22.188Z,31.00
2019-05-30T05:43:55.182Z,31.20
2019-05-30T05:46:28.759Z,31.40
2019-05-30T05:49:01.773Z,31.70
2019-05-30T05:51:35.479Z,32.00
2019-05-30T05:54:08.285Z,32.20
2019-05-30T05:56:47.749Z,32.50
2019-05-30T05:59:20.987Z,32.60
2019-05-30T06:01:54.330Z,32.70
2019-05-30T06:04:27.357Z,32.70
2019-05-30T06:07:00.562Z,32.70
2019-05-30T06:09:31.984Z,32.80
2019-05-30T06:12:04.807Z,33.00
2019-05-30T06:14:37.350Z,33.10
2019-05-30T06:17:10.241Z,33.10
2019-05-30T06:19:46.326Z,33.10
2019-05-30T06:22:17.416Z,33.10
2019-05-30T06:24:49.863Z,32.90
2019-05-30T06:27:23.897Z,32.80
2019-05-30T06:29:56.825Z,32.40
2019-05-30T06:32:28.894Z,32.10
2019-05-30T06:35:01.679Z,32.00
2019-05-30T06:37:37.262Z,31.90
2019-05-30T06:40:10.319Z,32.00
2019-05-30T06:42:43.285Z,32.20
2019-05-30T06:45:16.723Z,32.40
2019-05-30T06:47:49.771Z,32.20
2019-05-30T06:50:23.214Z,32.00
2019-05-30T06:52:56.289Z,31.90
2019-05-30T06:55:29.510Z,31.70
2019-05-30T06:58:02.746Z,31.70
2019-05-30T07:00:34.250Z,31.80
2019-05-30T07:03:07.018Z,31.90
2019-05-30T07:05:39.981Z,32.00
2019-05-30T07:08:13.417Z,32.00
2019-05-30T07:10:44.678Z,32.10
2019-05-30T07:13:17.018Z,32.00
2019-05-30T07:15:57.072Z,31.90
2019-05-30T07:18:36.785Z,31.80
2019-05-30T07:21:09.054Z,31.60
2019-05-30T07:23:41.115Z,31.50
2019-05-30T07:26:13.663Z,31.40
2019-05-30T07:28:47.042Z,31.40
2019-05-30T07:31:25.962Z,31.40
2019-05-30T07:33:58.402Z,31.40
2019-05-30T07:36:32.263Z,31.40
2019-05-30T07:39:06.724Z,31.30
2019-05-30T07:41:39.441Z,31.40
2019-05-30T07:44:12.679Z,31.40
2019-05-30T07:46:44.075Z,31.30
2019-05-30T07:49:16.921Z,31.30
2019-05-30T07:51:48.071Z,31.30
2019-05-30T07:54:20.827Z,31.40
2019-05-30T07:56:53.547Z,31.50
2019-05-30T07:59:26.707Z,31.50
2019-05-30T08:01:59.229Z,31.60
2019-05-30T08:04:32.492Z,31.80
2019-05-30T08:07:06.243Z,32.10
2019-05-30T08:09:39.285Z,32.40
2019-05-30T08:12:12.200Z,32.50
2019-05-30T08:14:46.336Z,32.60
2019-05-30T08:17:19.462Z,32.60
2019-05-30T08:19:52.555Z,32.50
2019-05-30T08:22:25.556Z,32.50
2019-05-30T08:24:58.577Z,32.50
2019-05-30T08:27:32.700Z,32.40
2019-05-30T08:30:07.329Z,32.30
2019-05-30T08:32:40.014Z,32.10
2019-05-30T08:35:12.826Z,31.80
2019-05-30T08:37:45.503Z,31.60
2019-05-30T08:40:19.885Z,31.40
2019-05-30T08:42:52.653Z,31.20
2019-05-30T08:45:29.551Z,31.20
2019-05-30T08:48:00.459Z,31.20
2019-05-30T08:50:41.301Z,31.20
2019-05-30T08:53:11.665Z,31.20
2019-05-30T08:55:44.612Z,31.20
2019-05-30T08:58:16.467Z,31.10
2019-05-30T09:00:50.500Z,31.20
2019-05-30T09:03:24.199Z,31.20
2019-05-30T09:06:03.726Z,31.30
2019-05-30T09:08:31.505Z,31.50
2019-05-30T09:11:06.552Z,31.60
2019-05-30T09:13:40.328Z,31.50
2019-05-30T09:16:13.199Z,31.60
2019-05-30T09:18:47.298Z,31.50
2019-05-30T09:21:20.635Z,31.50
2019-05-30T09:23:56.885Z,31.50
2019-05-30T09:26:27.431Z,31.40
2019-05-30T09:28:59.169Z,31.50
2019-05-30T09:31:31.489Z,31.40
2019-05-30T09:34:04.738Z,31.30
2019-05-30T09:36:39.428Z,31.10
2019-05-30T09:39:12.626Z,31.00
2019-05-30T09:41:45.719Z,30.90
2019-05-30T09:44:18.181Z,30.80
2019-05-30T09:46:51.432Z,30.80
2019-05-30T09:49:23.880Z,30.70
2019-05-30T09:51:58.093Z,30.70
2019-05-30T09:54:30.701Z,30.60
2019-05-30T09:57:03.908Z,30.50
2019-05-30T09:59:37.301Z,30.50
2019-05-30T10:02:10.509Z,30.50
2019-05-30T10:04:43.404Z,30.50
2019-05-30T10:07:17.566Z,30.50
2019-05-30T10:09:50.943Z,30.50
2019-05-30T10:12:23.835Z,30.40
2019-05-30T10:14:57.019Z,30.40
2019-05-30T10:17:30.528Z,30.40
2019-05-30T10:20:03.839Z,30.40
2019-05-30T10:22:37.038Z,30.40
2019-05-30T10:25:10.755Z,30.30
2019-05-30T10:27:46.259Z,30.30
2019-05-30T10:30:21.157Z,30.30
2019-05-30T10:32:55.760Z,30.30
2019-05-30T10:35:29.999Z,30.20
2019-05-30T10:38:03.991Z,30.20
2019-05-30T10:40:36.648Z,30.20
2019-05-30T10:43:09.510Z,30.10
2019-05-30T10:45:42.114Z,30.10
2019-05-30T10:48:13.998Z,30.00
2019-05-30T10:50:46.959Z,30.00
2019-05-30T10:53:20.597Z,30.00
2019-05-30T10:55:53.064Z,29.90
2019-05-30T10:58:26.618Z,29.90
2019-05-30T11:01:00.332Z,29.90
2019-05-30T11:03:33.417Z,29.80
2019-05-30T11:06:14.209Z,29.80
2019-05-30T11:08:49.131Z,29.70
2019-05-30T11:11:21.977Z,29.60
2019-05-30T11:13:53.573Z,29.60
2019-05-30T11:16:25.974Z,29.60
2019-05-30T11:18:58.938Z,29.60
2019-05-30T11:21:30.158Z,29.60
2019-05-30T11:24:03.988Z,29.50
2019-05-30T11:26:36.480Z,29.50
2019-05-30T11:29:08.132Z,29.40
2019-05-30T11:31:40.353Z,29.40
2019-05-30T11:34:13.789Z,29.40
2019-05-30T11:36:46.217Z,29.30
2019-05-30T11:39:18.960Z,29.40
2019-05-30T11:41:53.205Z,29.30
2019-05-30T11:44:25.972Z,29.30
2019-05-30T11:46:59.759Z,29.30
2019-05-30T11:49:33.018Z,29.30
2019-05-30T11:52:04.524Z,29.30
2019-05-30T11:54:37.334Z,29.20
2019-05-30T11:57:10.739Z,29.20
2019-05-30T11:59:43.457Z,29.10
2019-05-30T12:02:16.077Z,29.20
2019-05-30T12:04:50.702Z,29.20
2019-05-30T12:07:35.948Z,29.10
2019-05-30T12:09:58.987Z,29.10
2019-05-30T12:12:31.620Z,29.10
2019-05-30T12:15:04.588Z,29.00
2019-05-30T12:17:37.021Z,29.10
2019-05-30T12:20:11.211Z,29.00
2019-05-30T12:22:43.751Z,29.00
2019-05-30T12:25:15.932Z,29.00
2019-05-30T12:27:48.290Z,29.00
2019-05-30T12:30:21.726Z,29.00
2019-05-30T12:32:54.298Z,28.90
2019-05-30T12:35:27.298Z,28.90
2019-05-30T12:38:03.277Z,28.90
2019-05-30T12:40:34.079Z,28.90
2019-05-30T12:43:05.603Z,28.90
2019-05-30T12:45:38.400Z,28.90
2019-05-30T12:48:29.816Z,28.90
2019-05-30T12:51:03.527Z,28.90
2019-05-30T12:53:37.735Z,28.90
2019-05-30T12:56:10.396Z,28.90
2019-05-30T12:58:42.917Z,28.90
2019-05-30T13:01:15.849Z,28.90
2019-05-30T13:03:48.243Z,28.80
2019-05-30T13:06:21.410Z,28.80
2019-05-30T13:08:55.023Z,28.80
2019-05-30T13:11:28.004Z,28.80
2019-05-30T13:14:00.764Z,28.80
2019-05-30T13:16:32.518Z,28.80
2019-05-30T13:19:06.271Z,28.80
2019-05-30T13:21:39.144Z,28.70
2019-05-30T13:24:11.697Z,28.70
2019-05-30T13:26:44.560Z,28.70
2019-05-30T13:29:16.003Z,28.70
2019-05-30T13:31:52.202Z,28.70
2019-05-30T13:34:24.716Z,28.70
2019-05-30T13:36:56.879Z,28.70
2019-05-30T13:39:29.193Z,28.60
2019-05-30T13:42:02.027Z,28.60
2019-05-30T13:44:34.314Z,28.60
2019-05-30T13:47:08.735Z,28.60
2019-05-30T13:49:41.610Z,28.70
2019-05-30T13:52:13.604Z,28.60
2019-05-30T13:54:46.013Z,28.60
2019-05-30T13:57:18.743Z,28.60
2019-05-30T13:59:51.439Z,28.50
2019-05-30T14:02:24.646Z,28.50
2019-05-30T14:04:56.159Z,28.50
2019-05-30T14:07:30.315Z,28.50
2019-05-30T14:10:02.417Z,28.50
2019-05-30T14:12:37.737Z,28.50
2019-05-30T14:15:13.757Z,28.40
2019-05-30T14:17:49.005Z,28.40
2019-05-30T14:20:21.986Z,28.40
2019-05-30T14:22:54.553Z,28.50
2019-05-30T14:25:27.221Z,28.50
2019-05-30T14:28:01.478Z,28.40
2019-05-30T14:30:34.439Z,28.50
2019-05-30T14:33:08.132Z,28.50
2019-05-30T14:35:40.964Z,28.40
2019-05-30T14:38:14.362Z,28.40
2019-05-30T14:40:47.019Z,28.40
2019-05-30T14:43:18.852Z,28.30
2019-05-30T14:45:52.296Z,28.40
2019-05-30T14:48:25.668Z,28.30
2019-05-30T14:50:58.389Z,28.30
2019-05-30T14:53:30.571Z,28.20
2019-05-30T14:56:03.307Z,28.30
2019-05-30T14:58:36.393Z,28.30
2019-05-30T15:01:10.991Z,28.30
2019-05-30T15:03:44.607Z,28.30
2019-05-30T15:06:18.106Z,28.20
2019-05-30T15:08:50.958Z,28.30
2019-05-30T15:11:23.537Z,28.20
2019-05-30T15:13:56.151Z,28.30
2019-05-30T15:16:28.540Z,28.30
2019-05-30T15:19:01.418Z,28.20
2019-05-30T15:21:34.031Z,28.20
2019-05-30T15:24:07.735Z,28.20
2019-05-30T15:26:40.700Z,28.20
2019-05-30T15:29:16.672Z,28.20
2019-05-30T15:31:49.626Z,28.20
2019-05-30T15:34:22.864Z,28.20
2019-05-30T15:36:56.073Z,28.20
2019-05-30T15:39:32.850Z,28.20
2019-05-30T15:42:21.757Z,28.10
2019-05-30T15:44:54.423Z,28.20
2019-05-30T15:47:27.211Z,28.20
2019-05-30T15:50:03.088Z,28.20
2019-05-30T15:52:36.725Z,28.20
2019-05-30T15:55:11.150Z,28.20
2019-05-30T15:57:43.783Z,28.10
2019-05-30T16:00:18.055Z,28.20
2019-05-30T16:02:50.514Z,28.20
2019-05-30T16:05:24.251Z,28.20
2019-05-30T16:07:56.871Z,28.20
2019-05-30T16:10:28.762Z,28.20
2019-05-30T16:13:01.304Z,28.10
2019-05-30T16:15:33.260Z,28.10
2019-05-30T16:18:05.638Z,28.10
2019-05-30T16:20:38.378Z,28.10
2019-05-30T16:23:10.817Z,28.10
2019-05-30T16:25:44.754Z,28.00
2019-05-30T16:28:17.870Z,28.00
2019-05-30T16:30:50.359Z,28.00
2019-05-30T16:33:23.322Z,28.00
2019-05-30T16:35:56.413Z,28.00
2019-05-30T16:38:29.139Z,28.10
2019-05-30T16:41:02.092Z,28.00
2019-05-30T16:43:34.800Z,28.00
2019-05-30T16:46:07.884Z,27.90
2019-05-30T16:48:42.048Z,27.90
2019-05-30T16:51:14.982Z,28.00
2019-05-30T16:53:48.653Z,27.90
2019-05-30T16:56:21.546Z,27.90
2019-05-30T16:58:54.178Z,27.90
2019-05-30T17:01:26.851Z,28.00
2019-05-30T17:03:58.800Z,27.90
2019-05-30T17:06:31.178Z,27.80
2019-05-30T17:09:04.080Z,27.80
2019-05-30T17:11:36.535Z,27.80
2019-05-30T17:14:09.350Z,27.80
2019-05-30T17:16:42.051Z,27.70
2019-05-30T17:19:16.294Z,27.80
2019-05-30T17:21:49.115Z,27.80
2019-05-30T17:24:22.932Z,27.80
2019-05-30T17:26:55.718Z,27.80
2019-05-30T17:29:27.722Z,27.80
2019-05-30T17:32:00.096Z,27.80
2019-05-30T17:34:32.963Z,27.90
2019-05-30T17:37:05.574Z,27.90
2019-05-30T17:39:38.280Z,27.90
2019-05-30T17:42:10.965Z,27.80
2019-05-30T17:44:42.931Z,27.80
2019-05-30T17:47:15.544Z,27.80
2019-05-30T17:49:48.990Z,27.80
2019-05-30T17:52:21.748Z,27.80
2019-05-30T17:54:55.376Z,27.80
2019-05-30T17:57:28.150Z,27.80
2019-05-30T18:00:01.166Z,27.80
2019-05-30T18:02:34.089Z,27.80
2019-05-30T18:05:08.479Z,27.80
2019-05-30T18:07:41.148Z,27.80
2019-05-30T18:10:15.650Z,27.80
2019-05-30T18:12:48.292Z,27.80
2019-05-30T18:15:25.027Z,27.70
2019-05-30T18:17:56.008Z,27.70
2019-05-30T18:20:29.397Z,27.70
2019-05-30T18:23:01.852Z,27.70
2019-05-30T18:25:34.698Z,27.70
2019-05-30T18:28:07.393Z,27.60
2019-05-30T18:30:42.591Z,27.60
2019-05-30T18:33:15.582Z,27.50
2019-05-30T18:35:46.971Z,27.50
2019-05-30T18:38:19.357Z,27.50
2019-05-30T18:40:52.290Z,27.50
2019-05-30T18:43:24.835Z,27.50
2019-05-30T18:45:57.013Z,27.40
2019-05-30T18:48:29.570Z,27.50
2019-05-30T18:51:02.617Z,27.50
2019-05-30T18:53:36.737Z,27.50
2019-05-30T18:56:09.568Z,27.40
2019-05-30T18:58:41.865Z,27.40
2019-05-30T19:01:14.637Z,27.40
2019-05-30T19:03:47.181Z,27.50
2019-05-30T19:06:19.976Z,27.50
2019-05-30T19:08:52.562Z,27.50
2019-05-30T19:11:29.591Z,27.50
2019-05-30T19:13:59.432Z,27.40
2019-05-30T19:16:32.913Z,27.40
2019-05-30T19:19:05.428Z,27.40
2019-05-30T19:21:59.090Z,27.40
2019-05-30T19:24:32.134Z,27.40
2019-05-30T19:27:04.976Z,27.40
2019-05-30T19:29:37.876Z,27.40
2019-05-30T19:32:10.335Z,27.40
2019-05-30T19:34:43.453Z,27.30
2019-05-30T19:37:14.918Z,27.20
2019-05-30T19:39:59.787Z,27.20
2019-05-30T19:42:33.437Z,27.20
2019-05-30T19:45:07.991Z,27.30
2019-05-30T19:47:41.041Z,27.30
2019-05-30T19:50:15.331Z,27.30
2019-05-30T19:52:48.866Z,27.50
2019-05-30T19:55:22.046Z,27.70
2019-05-30T19:57:53.710Z,27.30
2019-05-30T20:00:26.433Z,26.70
2019-05-30T20:02:58.887Z,26.50
2019-05-30T20:05:32.477Z,26.20
2019-05-30T20:08:04.962Z,26.00
2019-05-30T20:10:37.448Z,26.00
2019-05-30T20:13:10.476Z,26.10
2019-05-30T20:15:43.017Z,26.10
2019-05-30T20:18:15.581Z,26.10
2019-05-30T20:20:56.748Z,26.10
2019-05-30T20:23:20.827Z,26.30
2019-05-30T20:25:53.614Z,26.30
2019-05-30T20:28:25.392Z,26.30
2019-05-30T20:30:58.360Z,26.30
2019-05-30T20:33:30.797Z,26.30
2019-05-30T20:36:04.709Z,26.30
2019-05-30T20:38:38.589Z,26.40
2019-05-30T20:41:11.562Z,26.30
2019-05-30T20:43:47.071Z,26.30
2019-05-30T20:46:23.477Z,26.30
2019-05-30T20:48:54.819Z,26.30
2019-05-30T20:51:27.295Z,26.20
2019-05-30T20:54:00.018Z,26.20
2019-05-30T20:56:32.278Z,26.10
2019-05-30T20:59:05.318Z,26.20
2019-05-30T21:01:37.757Z,26.20
2019-05-30T21:04:10.518Z,26.20
2019-05-30T21:06:44.120Z,26.20
2019-05-30T21:09:28.337Z,26.20
2019-05-30T21:11:52.167Z,26.20
2019-05-30T21:14:27.582Z,26.10
2019-05-30T21:17:00.231Z,26.20
2019-05-30T21:19:33.159Z,26.10
2019-05-30T21:22:05.538Z,26.10
2019-05-30T21:24:38.624Z,26.10
2019-05-30T21:27:12.042Z,26.10
2019-05-30T21:29:45.780Z,26.10
2019-05-30T21:32:18.438Z,26.10
2019-05-30T21:34:51.696Z,26.00
2019-05-30T21:37:45.814Z,26.10
2019-05-30T21:40:18.631Z,26.10
2019-05-30T21:43:04.670Z,26.20
2019-05-30T21:45:25.459Z,26.30
2019-05-30T21:47:57.911Z,26.20
2019-05-30T21:50:30.894Z,26.20
2019-05-30T21:53:03.414Z,26.20
2019-05-30T21:55:36.260Z,26.10
2019-05-30T21:58:08.860Z,26.10
2019-05-30T22:00:51.050Z,26.10
2019-05-30T22:03:24.709Z,26.10
2019-05-30T22:05:57.924Z,26.00
2019-05-30T22:08:30.329Z,26.10
2019-05-30T22:11:03.618Z,26.10
2019-05-30T22:13:36.304Z,26.10
2019-05-30T22:16:09.613Z,26.10
2019-05-30T22:18:41.864Z,26.10
2019-05-30T22:21:14.722Z,26.20
2019-05-30T22:23:48.112Z,26.10
2019-05-30T22:26:21.102Z,26.10
2019-05-30T22:28:53.607Z,26.10
2019-05-30T22:31:26.693Z,26.10
2019-05-30T22:33:59.497Z,26.10
2019-05-30T22:36:32.245Z,26.10
2019-05-30T22:39:08.682Z,26.00
2019-05-30T22:41:39.925Z,26.00
2019-05-30T22:44:11.199Z,26.10
2019-05-30T22:46:44.171Z,26.00
2019-05-30T22:49:16.901Z,26.00
2019-05-30T22:51:51.056Z,26.00
2019-05-30T22:54:23.645Z,26.00
2019-05-30T22:56:56.660Z,26.00
2019-05-30T22:59:28.063Z,26.00
2019-05-30T23:02:02.240Z,26.10
2019-05-30T23:04:33.718Z,26.10
2019-05-30T23:07:06.550Z,26.00
2019-05-30T23:09:39.155Z,26.00
2019-05-30T23:12:10.917Z,26.10
2019-05-30T23:14:43.325Z,26.00
2019-05-30T23:17:16.288Z,26.10
2019-05-30T23:19:48.972Z,26.10
2019-05-30T23:22:21.657Z,26.10
2019-05-30T23:24:55.444Z,26.10
2019-05-30T23:27:28.849Z,26.10
2019-05-30T23:30:00.043Z,26.10
2019-05-30T23:32:32.789Z,26.10
2019-05-30T23:35:05.066Z,26.10
2019-05-30T23:37:38.759Z,26.10
2019-05-30T23:40:11.996Z,26.10
2019-05-30T23:42:44.718Z,26.10
2019-05-30T23:45:17.318Z,26.10
2019-05-30T23:47:49.472Z,26.10
2019-05-30T23:50:21.960Z,26.10
2019-05-30T23:52:56.192Z,26.10
2019-05-30T23:55:28.552Z,26.10
2019-05-30T23:58:01.764Z,26.10
